createdAt,value
2019-05-17T00:01:37.572Z,4.80
2019-05-17T00:04:07.183Z,4.80
2019-05-17T00:06:36.926Z,4.90
2019-05-17T00:09:07.580Z,4.90
2019-05-17T00:11:36.803Z,4.90
2019-05-17T00:14:06.347Z,5.00
2019-05-17T00:16:37.357Z,5.00
2019-05-17T00:19:07.462Z,5.10
2019-05-17T00:21:36.991Z,5.20
2019-05-17T00:24:06.655Z,5.30
2019-05-17T00:26:36.304Z,5.40
2019-05-17T00:29:06.875Z,5.50
2019-05-17T00:31:37.047Z,5.60
2019-05-17T00:34:07.347Z,5.70
2019-05-17T00:36:37.466Z,5.80
2019-05-17T00:39:07.541Z,5.90
2019-05-17T00:41:37.907Z,6.00
2019-05-17T00:44:06.742Z,6.10
2019-05-17T00:46:37.283Z,6.20
2019-05-17T00:49:06.621Z,6.30
2019-05-17T00:51:36.954Z,6.30
2019-05-17T00:54:06.816Z,6.40
2019-05-17T00:56:37.189Z,6.50
2019-05-17T00:59:07.413Z,6.60
2019-05-17T01:01:36.594Z,6.70
2019-05-17T01:04:06.830Z,6.70
2019-05-17T01:06:37.550Z,6.60
2019-05-17T01:09:07.767Z,6.60
2019-05-17T01:11:36.802Z,6.60
2019-05-17T01:14:06.851Z,6.70
2019-05-17T01:16:36.753Z,6.80
2019-05-17T01:19:06.843Z,6.80
2019-05-17T01:21:36.785Z,6.80
2019-05-17T01:24:06.827Z,6.80
2019-05-17T01:26:37.403Z,6.90
2019-05-17T01:29:06.811Z,6.80
2019-05-17T01:31:37.313Z,6.80
2019-05-17T01:34:07.327Z,6.80
2019-05-17T01:36:37.033Z,6.70
2019-05-17T01:39:15.260Z,6.70
2019-05-17T01:41:37.302Z,6.80
2019-05-17T01:44:07.466Z,6.80
2019-05-17T01:46:37.043Z,6.80
2019-05-17T01:49:06.890Z,6.80
2019-05-17T01:51:37.022Z,6.80
2019-05-17T01:54:06.835Z,6.80
2019-05-17T01:56:36.961Z,6.80
2019-05-17T01:59:06.804Z,6.80
2019-05-17T02:01:37.091Z,6.90
2019-05-17T02:04:06.621Z,6.90
2019-05-17T02:06:36.607Z,6.90
2019-05-17T02:09:06.862Z,7.00
2019-05-17T02:11:37.335Z,7.00
2019-05-17T02:14:06.970Z,7.00
2019-05-17T02:16:37.654Z,7.00
2019-05-17T02:19:06.873Z,7.10
2019-05-17T02:21:36.761Z,7.10
2019-05-17T02:24:07.978Z,7.10
2019-05-17T02:26:37.470Z,7.10
2019-05-17T02:29:06.433Z,7.20
2019-05-17T02:31:35.359Z,7.10
2019-05-17T02:34:04.231Z,7.20
2019-05-17T02:36:33.439Z,7.20
2019-05-17T02:39:03.569Z,7.20
2019-05-17T02:41:33.300Z,7.20
2019-05-17T02:44:02.662Z,7.20
2019-05-17T02:46:33.886Z,7.20
2019-05-17T02:49:03.013Z,7.20
2019-05-17T02:51:32.611Z,7.20
2019-05-17T02:54:04.107Z,7.20
2019-05-17T02:56:32.759Z,7.20
2019-05-17T02:59:03.601Z,7.30
2019-05-17T03:01:33.507Z,7.30
2019-05-17T03:04:03.780Z,7.30
2019-05-17T03:06:33.174Z,7.20
2019-05-17T03:09:03.317Z,7.30
2019-05-17T03:11:33.393Z,7.30
2019-05-17T03:14:03.906Z,7.30
2019-05-17T03:16:33.843Z,7.30
2019-05-17T03:19:04.077Z,7.30
2019-05-17T03:21:33.879Z,7.30
2019-05-17T03:24:03.871Z,7.40
2019-05-17T03:26:33.056Z,7.30
2019-05-17T03:29:03.424Z,7.30
2019-05-17T03:31:40.703Z,7.40
2019-05-17T03:34:06.778Z,7.40
2019-05-17T03:36:36.425Z,7.40
2019-05-17T03:39:07.039Z,7.40
2019-05-17T03:41:35.992Z,7.40
2019-05-17T03:44:05.413Z,7.40
2019-05-17T03:46:34.368Z,7.40
2019-05-17T03:49:04.077Z,7.40
2019-05-17T03:51:33.520Z,7.50
2019-05-17T03:54:03.307Z,7.50
2019-05-17T03:56:32.963Z,7.50
2019-05-17T03:59:03.783Z,7.50
2019-05-17T04:01:33.008Z,7.50
2019-05-17T04:04:02.823Z,7.50
2019-05-17T04:06:32.882Z,7.60
2019-05-17T04:09:03.639Z,7.60
2019-05-17T04:11:36.289Z,7.60
2019-05-17T04:14:03.253Z,7.60
2019-05-17T04:16:33.919Z,7.60
2019-05-17T04:19:03.310Z,7.60
2019-05-17T04:21:34.142Z,7.60
2019-05-17T04:24:03.321Z,7.60
2019-05-17T04:26:32.846Z,7.50
2019-05-17T04:29:03.571Z,7.60
2019-05-17T04:31:34.906Z,7.60
2019-05-17T04:34:03.278Z,7.60
2019-05-17T04:36:32.458Z,7.60
2019-05-17T04:39:02.460Z,7.60
2019-05-17T04:41:44.707Z,7.60
2019-05-17T04:44:02.841Z,7.70
2019-05-17T04:46:32.634Z,7.70
2019-05-17T04:49:02.947Z,7.70
2019-05-17T04:51:33.627Z,7.60
2019-05-17T04:54:03.236Z,7.70
2019-05-17T04:56:33.282Z,7.70
2019-05-17T04:59:03.545Z,7.70
2019-05-17T05:01:33.118Z,7.60
2019-05-17T05:04:03.545Z,7.70
2019-05-17T05:06:33.072Z,7.60
2019-05-17T05:09:02.710Z,7.70
2019-05-17T05:11:32.810Z,7.70
2019-05-17T05:14:02.877Z,7.70
2019-05-17T05:16:32.230Z,7.70
2019-05-17T05:19:02.949Z,7.80
2019-05-17T05:21:32.460Z,7.70
2019-05-17T05:24:02.500Z,7.70
2019-05-17T05:26:31.852Z,7.70
2019-05-17T05:29:02.120Z,7.70
2019-05-17T05:31:32.207Z,7.70
2019-05-17T05:34:01.873Z,7.70
2019-05-17T05:36:32.779Z,7.80
2019-05-17T05:39:02.436Z,7.80
2019-05-17T05:41:31.991Z,7.70
2019-05-17T05:44:01.806Z,7.80
2019-05-17T05:46:31.777Z,7.80
2019-05-17T05:49:01.742Z,7.90
2019-05-17T05:51:32.014Z,7.90
2019-05-17T05:54:01.641Z,7.90
2019-05-17T05:56:32.585Z,8.00
2019-05-17T05:59:02.901Z,8.10
2019-05-17T06:01:32.721Z,8.20
2019-05-17T06:04:02.683Z,8.30
2019-05-17T06:06:32.260Z,8.40
2019-05-17T06:09:02.756Z,8.50
2019-05-17T06:11:32.332Z,8.60
2019-05-17T06:14:01.771Z,8.70
2019-05-17T06:16:32.099Z,8.70
2019-05-17T06:19:02.421Z,8.80
2019-05-17T06:21:31.969Z,8.80
2019-05-17T06:24:02.578Z,8.90
2019-05-17T06:26:31.610Z,8.80
2019-05-17T06:29:02.690Z,8.80
2019-05-17T06:31:33.275Z,8.90
2019-05-17T06:34:02.041Z,8.90
2019-05-17T06:36:32.850Z,8.90
2019-05-17T06:39:02.286Z,8.90
2019-05-17T06:41:32.355Z,9.00
2019-05-17T06:44:02.934Z,9.00
2019-05-17T06:46:32.512Z,9.00
2019-05-17T06:49:02.990Z,9.00
2019-05-17T06:51:33.258Z,9.10
2019-05-17T06:54:05.635Z,9.10
2019-05-17T06:56:34.857Z,9.20
2019-05-17T06:59:04.368Z,9.20
2019-05-17T07:01:33.379Z,9.20
2019-05-17T07:04:02.330Z,9.30
2019-05-17T07:06:33.527Z,9.40
2019-05-17T07:09:02.534Z,9.50
2019-05-17T07:11:31.809Z,9.60
2019-05-17T07:14:00.689Z,9.60
2019-05-17T07:16:30.143Z,9.60
2019-05-17T07:18:59.780Z,9.70
2019-05-17T07:21:29.720Z,9.90
2019-05-17T07:23:59.379Z,10.00
2019-05-17T07:26:30.231Z,10.20
2019-05-17T07:28:59.336Z,10.20
2019-05-17T07:31:29.809Z,10.30
2019-05-17T07:33:59.837Z,10.50
2019-05-17T07:36:30.671Z,10.70
2019-05-17T07:39:00.793Z,10.80
2019-05-17T07:41:29.961Z,11.00
2019-05-17T07:44:00.410Z,11.10
2019-05-17T07:46:30.256Z,11.20
2019-05-17T07:49:00.415Z,11.40
2019-05-17T07:51:30.094Z,11.70
2019-05-17T07:53:59.749Z,11.90
2019-05-17T07:56:30.544Z,12.10
2019-05-17T07:59:00.061Z,12.30
2019-05-17T08:01:29.746Z,12.40
2019-05-17T08:04:00.571Z,12.50
2019-05-17T08:06:30.609Z,12.50
2019-05-17T08:09:03.977Z,12.80
2019-05-17T08:11:30.423Z,13.20
2019-05-17T08:14:01.515Z,13.20
2019-05-17T08:16:33.459Z,13.10
2019-05-17T08:19:02.495Z,13.20
2019-05-17T08:21:31.351Z,13.40
2019-05-17T08:24:00.859Z,13.80
2019-05-17T08:26:29.949Z,14.60
2019-05-17T08:29:00.693Z,15.60
2019-05-17T08:31:29.612Z,16.30
2019-05-17T08:34:00.089Z,16.80
2019-05-17T08:36:29.802Z,17.00
2019-05-17T08:38:59.649Z,17.30
2019-05-17T08:41:30.897Z,17.70
2019-05-17T08:44:00.718Z,17.90
2019-05-17T08:46:30.509Z,18.20
2019-05-17T08:49:00.320Z,18.40
2019-05-17T08:51:30.481Z,18.80
2019-05-17T08:54:00.132Z,19.00
2019-05-17T08:56:30.876Z,18.90
2019-05-17T08:59:00.791Z,19.00
2019-05-17T09:01:30.178Z,19.20
2019-05-17T09:03:59.828Z,19.70
2019-05-17T09:06:29.349Z,19.80
2019-05-17T09:09:00.809Z,19.90
2019-05-17T09:11:30.310Z,19.90
2019-05-17T09:14:02.170Z,19.90
2019-05-17T09:16:30.759Z,20.10
2019-05-17T09:19:00.494Z,20.10
2019-05-17T09:21:31.277Z,20.10
2019-05-17T09:24:00.120Z,20.10
2019-05-17T09:26:29.443Z,20.10
2019-05-17T09:29:01.128Z,20.20
2019-05-17T09:31:29.823Z,20.40
2019-05-17T09:34:00.288Z,20.60
2019-05-17T09:36:30.356Z,20.60
2019-05-17T09:39:00.341Z,20.60
2019-05-17T09:41:29.388Z,20.80
2019-05-17T09:44:09.587Z,20.80
2019-05-17T09:46:30.347Z,20.90
2019-05-17T09:49:01.235Z,20.90
2019-05-17T09:51:30.426Z,20.70
2019-05-17T09:54:00.042Z,20.80
2019-05-17T09:56:30.164Z,20.70
2019-05-17T09:59:00.449Z,20.90
2019-05-17T10:01:30.361Z,20.60
2019-05-17T10:03:59.980Z,20.80
2019-05-17T10:06:29.145Z,20.90
2019-05-17T10:09:00.076Z,20.80
2019-05-17T10:11:30.944Z,20.70
2019-05-17T10:14:01.355Z,20.70
2019-05-17T10:16:30.888Z,20.70
2019-05-17T10:19:00.169Z,20.90
2019-05-17T10:21:30.378Z,21.00
2019-05-17T10:24:00.165Z,20.80
2019-05-17T10:26:30.331Z,20.60
2019-05-17T10:28:59.499Z,20.50
2019-05-17T10:31:30.249Z,20.70
2019-05-17T10:34:01.108Z,20.80
2019-05-17T10:36:29.743Z,20.90
2019-05-17T10:38:59.241Z,21.20
2019-05-17T10:41:30.141Z,21.10
2019-05-17T10:43:59.244Z,20.60
2019-05-17T10:46:30.011Z,20.30
2019-05-17T10:48:58.631Z,20.20
2019-05-17T10:51:29.675Z,20.30
2019-05-17T10:53:59.981Z,20.60
2019-05-17T10:56:33.304Z,20.90
2019-05-17T10:59:09.771Z,21.00
2019-05-17T11:01:39.153Z,21.00
2019-05-17T11:04:10.317Z,21.00
2019-05-17T11:06:39.404Z,21.20
2019-05-17T11:09:11.466Z,21.40
2019-05-17T11:11:40.335Z,21.10
2019-05-17T11:14:09.265Z,20.90
2019-05-17T11:16:38.123Z,20.90
2019-05-17T11:19:08.769Z,21.30
2019-05-17T11:21:37.831Z,21.40
2019-05-17T11:24:06.886Z,21.50
2019-05-17T11:26:35.719Z,21.50
2019-05-17T11:29:04.652Z,21.60
2019-05-17T11:31:36.385Z,21.70
2019-05-17T11:34:05.211Z,21.90
2019-05-17T11:36:34.122Z,21.90
2019-05-17T11:39:03.321Z,21.90
2019-05-17T11:41:32.296Z,21.60
2019-05-17T11:44:01.203Z,21.50
2019-05-17T11:46:36.188Z,21.50
2019-05-17T11:49:04.212Z,21.60
2019-05-17T11:51:37.675Z,21.80
2019-05-17T11:54:07.961Z,21.70
2019-05-17T11:56:36.829Z,21.80
2019-05-17T11:59:05.779Z,21.90
2019-05-17T12:01:34.648Z,22.10
2019-05-17T12:04:03.507Z,21.90
2019-05-17T12:06:32.929Z,21.70
2019-05-17T12:09:03.464Z,21.60
2019-05-17T12:11:32.392Z,21.30
2019-05-17T12:14:01.463Z,20.90
2019-05-17T12:16:30.295Z,20.70
2019-05-17T12:19:01.756Z,20.70
2019-05-17T12:21:30.939Z,20.80
2019-05-17T12:24:01.275Z,20.80
2019-05-17T12:26:36.268Z,20.80
2019-05-17T12:29:06.951Z,21.00
2019-05-17T12:31:36.029Z,21.10
2019-05-17T12:34:04.999Z,20.90
2019-05-17T12:36:34.475Z,20.60
2019-05-17T12:39:07.685Z,20.30
2019-05-17T12:41:38.596Z,20.30
2019-05-17T12:44:07.462Z,20.30
2019-05-17T12:46:38.296Z,20.20
2019-05-17T12:49:07.263Z,20.30
2019-05-17T12:51:36.081Z,20.30
2019-05-17T12:54:06.913Z,20.50
2019-05-17T12:56:37.299Z,20.40
2019-05-17T12:59:08.495Z,20.50
2019-05-17T13:01:38.674Z,20.30
2019-05-17T13:04:07.603Z,20.30
2019-05-17T13:06:39.640Z,20.10
2019-05-17T13:09:08.693Z,20.30
2019-05-17T13:11:38.190Z,20.50
2019-05-17T13:14:07.050Z,20.60
2019-05-17T13:16:35.929Z,20.50
2019-05-17T13:19:06.415Z,20.50
2019-05-17T13:21:39.940Z,20.40
2019-05-17T13:24:10.449Z,20.30
2019-05-17T13:26:39.543Z,20.30
2019-05-17T13:29:10.178Z,20.20
2019-05-17T13:31:39.260Z,20.10
2019-05-17T13:34:08.108Z,20.30
2019-05-17T13:36:36.964Z,20.10
2019-05-17T13:39:10.201Z,19.80
2019-05-17T13:41:40.913Z,19.80
2019-05-17T13:44:12.230Z,19.80
2019-05-17T13:46:41.191Z,19.80
2019-05-17T13:49:10.057Z,19.80
2019-05-17T13:51:40.278Z,19.70
2019-05-17T13:54:09.203Z,19.80
2019-05-17T13:56:38.172Z,19.90
2019-05-17T13:59:08.760Z,20.10
2019-05-17T14:01:40.691Z,20.20
2019-05-17T14:04:09.550Z,20.00
2019-05-17T14:06:38.440Z,20.00
2019-05-17T14:09:07.935Z,19.90
2019-05-17T14:11:37.185Z,20.20
2019-05-17T14:14:06.102Z,20.20
2019-05-17T14:16:35.058Z,20.40
2019-05-17T14:19:05.536Z,20.30
2019-05-17T14:21:34.407Z,19.90
2019-05-17T14:24:03.356Z,19.70
2019-05-17T14:26:32.209Z,19.40
2019-05-17T14:29:02.755Z,19.20
2019-05-17T14:31:31.879Z,19.20
2019-05-17T14:34:00.751Z,19.20
2019-05-17T14:36:29.574Z,19.10
2019-05-17T14:38:58.523Z,19.10
2019-05-17T14:41:31.164Z,19.10
2019-05-17T14:44:03.087Z,19.00
2019-05-17T14:46:31.956Z,19.10
2019-05-17T14:49:00.899Z,19.10
2019-05-17T14:51:31.428Z,19.10
2019-05-17T14:54:01.782Z,19.20
2019-05-17T14:56:30.940Z,19.00
2019-05-17T14:59:02.149Z,18.90
2019-05-17T15:01:33.066Z,18.80
2019-05-17T15:04:02.157Z,18.70
2019-05-17T15:06:33.802Z,18.60
2019-05-17T15:09:04.211Z,18.60
2019-05-17T15:11:33.079Z,18.40
2019-05-17T15:14:02.242Z,18.30
2019-05-17T15:16:33.882Z,18.10
2019-05-17T15:19:04.703Z,18.00
2019-05-17T15:21:36.257Z,18.00
2019-05-17T15:24:05.164Z,17.80
2019-05-17T15:26:35.801Z,17.60
2019-05-17T15:29:06.565Z,17.50
2019-05-17T15:31:35.435Z,17.40
2019-05-17T15:34:07.175Z,17.30
2019-05-17T15:36:36.200Z,17.30
2019-05-17T15:39:06.593Z,17.20
2019-05-17T15:41:35.543Z,17.10
2019-05-17T15:44:04.476Z,16.90
2019-05-17T15:46:33.412Z,17.00
2019-05-17T15:49:05.552Z,16.90
2019-05-17T15:51:35.909Z,16.80
2019-05-17T15:54:07.703Z,16.70
2019-05-17T15:56:42.548Z,16.70
2019-05-17T15:59:11.428Z,16.80
2019-05-17T16:01:55.861Z,16.80
2019-05-17T16:04:27.723Z,16.50
2019-05-17T16:06:59.344Z,16.40
2019-05-17T16:09:29.809Z,16.20
2019-05-17T16:11:58.933Z,16.00
2019-05-17T16:14:27.834Z,16.00
2019-05-17T16:16:57.194Z,15.90
2019-05-17T16:19:27.558Z,15.80
2019-05-17T16:21:56.670Z,15.70
2019-05-17T16:24:25.632Z,15.70
2019-05-17T16:26:54.686Z,15.60
2019-05-17T16:29:23.674Z,15.40
2019-05-17T16:31:52.585Z,15.30
2019-05-17T16:34:21.447Z,15.30
2019-05-17T16:36:50.360Z,15.30
2019-05-17T16:39:19.229Z,15.20
2019-05-17T16:41:48.086Z,15.00
2019-05-17T16:44:17.388Z,14.90
2019-05-17T16:46:46.305Z,14.90
2019-05-17T16:49:15.431Z,14.80
2019-05-17T16:51:44.309Z,14.80
2019-05-17T16:54:13.170Z,14.90
2019-05-17T16:56:42.036Z,14.90
2019-05-17T16:59:11.047Z,14.80
2019-05-17T17:01:39.922Z,14.70
2019-05-17T17:04:08.999Z,14.50
2019-05-17T17:06:37.895Z,14.40
2019-05-17T17:09:07.272Z,14.20
2019-05-17T17:11:36.168Z,14.10
2019-05-17T17:14:05.227Z,14.00
2019-05-17T17:16:34.082Z,13.90
2019-05-17T17:19:03.060Z,13.80
2019-05-17T17:21:31.917Z,13.70
2019-05-17T17:24:00.783Z,13.70
2019-05-17T17:26:30.141Z,13.60
2019-05-17T17:28:59.163Z,13.60
2019-05-17T17:31:28.732Z,13.40
2019-05-17T17:33:57.679Z,13.40
2019-05-17T17:36:26.581Z,13.30
2019-05-17T17:38:55.541Z,13.20
2019-05-17T17:41:26.639Z,13.10
2019-05-17T17:43:58.639Z,13.20
2019-05-17T17:46:26.341Z,13.20
2019-05-17T17:48:55.215Z,13.10
2019-05-17T17:51:24.113Z,13.10
2019-05-17T17:53:53.015Z,13.10
2019-05-17T17:56:21.860Z,13.20
2019-05-17T17:58:50.738Z,13.20
2019-05-17T18:01:19.726Z,13.20
2019-05-17T18:03:48.743Z,13.20
2019-05-17T18:06:17.738Z,13.20
2019-05-17T18:08:46.627Z,13.20
2019-05-17T18:11:18.488Z,13.10
2019-05-17T18:13:47.758Z,13.10
2019-05-17T18:16:16.621Z,13.20
2019-05-17T18:18:45.530Z,13.10
2019-05-17T18:21:14.397Z,13.20
2019-05-17T18:23:43.682Z,13.10
2019-05-17T18:26:12.542Z,13.10
2019-05-17T18:28:41.582Z,13.00
2019-05-17T18:31:10.528Z,13.00
2019-05-17T18:33:39.401Z,12.90
2019-05-17T18:36:08.267Z,12.90
2019-05-17T18:38:37.787Z,12.80
2019-05-17T18:41:06.651Z,12.70
2019-05-17T18:43:35.694Z,12.60
2019-05-17T18:46:04.746Z,12.40
2019-05-17T18:48:33.655Z,12.30
2019-05-17T18:51:02.561Z,12.20
2019-05-17T18:53:31.459Z,12.00
2019-05-17T18:56:00.316Z,11.90
2019-05-17T18:58:29.571Z,11.80
2019-05-17T19:00:58.432Z,11.70
2019-05-17T19:03:27.265Z,11.60
2019-05-17T19:05:56.193Z,11.50
2019-05-17T19:08:25.083Z,11.40
2019-05-17T19:10:53.948Z,11.30
2019-05-17T19:13:22.870Z,11.20
2019-05-17T19:15:51.741Z,11.20
2019-05-17T19:18:20.646Z,11.10
2019-05-17T19:20:49.566Z,11.00
2019-05-17T19:23:18.413Z,11.00
2019-05-17T19:25:47.230Z,11.00
2019-05-17T19:28:16.152Z,11.00
2019-05-17T19:30:45.053Z,11.00
2019-05-17T19:33:13.923Z,10.90
2019-05-17T19:35:43.022Z,10.90
2019-05-17T19:38:11.895Z,10.90
2019-05-17T19:40:41.174Z,10.90
2019-05-17T19:43:10.087Z,10.80
2019-05-17T19:45:38.948Z,10.80
2019-05-17T19:48:07.845Z,10.80
2019-05-17T19:50:36.743Z,10.70
2019-05-17T19:53:05.613Z,10.70
2019-05-17T19:55:34.481Z,10.70
2019-05-17T19:58:03.344Z,10.70
2019-05-17T20:00:32.210Z,10.70
2019-05-17T20:03:01.059Z,10.70
2019-05-17T20:05:30.019Z,10.70
2019-05-17T20:07:58.888Z,10.70
2019-05-17T20:10:27.762Z,10.70
2019-05-17T20:12:56.682Z,10.60
2019-05-17T20:15:34.104Z,10.60
2019-05-17T20:17:56.372Z,10.60
2019-05-17T20:20:25.830Z,10.60
2019-05-17T20:22:54.726Z,10.50
2019-05-17T20:25:23.591Z,10.50
2019-05-17T20:27:52.495Z,10.50
2019-05-17T20:30:21.888Z,10.50
2019-05-17T20:32:50.759Z,10.50
2019-05-17T20:35:19.790Z,10.50
2019-05-17T20:37:48.665Z,10.40
2019-05-17T20:40:17.677Z,10.40
2019-05-17T20:42:46.638Z,10.40
2019-05-17T20:45:30.616Z,10.40
2019-05-17T20:47:47.497Z,10.40
2019-05-17T20:50:16.646Z,10.40
2019-05-17T20:52:45.605Z,10.30
2019-05-17T20:55:14.811Z,10.30
2019-05-17T20:57:43.743Z,10.30
2019-05-17T21:00:13.972Z,10.20
2019-05-17T21:02:43.308Z,10.20
2019-05-17T21:05:15.210Z,10.20
2019-05-17T21:07:44.132Z,10.20
2019-05-17T21:10:13.222Z,10.20
2019-05-17T21:12:42.138Z,10.30
2019-05-17T21:15:11.300Z,10.30
2019-05-17T21:17:40.125Z,10.20
2019-05-17T21:20:09.449Z,10.20
2019-05-17T21:22:38.403Z,10.20
2019-05-17T21:25:08.769Z,10.20
2019-05-17T21:27:37.711Z,10.20
2019-05-17T21:30:07.147Z,10.20
2019-05-17T21:32:36.220Z,10.20
2019-05-17T21:35:06.631Z,10.20
2019-05-17T21:37:36.179Z,10.20
2019-05-17T21:40:07.264Z,10.20
2019-05-17T21:42:36.147Z,10.20
2019-05-17T21:45:06.584Z,10.20
2019-05-17T21:47:35.458Z,10.20
2019-05-17T21:50:05.117Z,10.20
2019-05-17T21:52:33.992Z,10.20
2019-05-17T21:55:07.748Z,10.20
2019-05-17T21:57:36.787Z,10.10
2019-05-17T22:00:09.148Z,10.20
2019-05-17T22:02:42.657Z,10.10
2019-05-17T22:05:12.284Z,10.20
2019-05-17T22:07:41.357Z,10.10
2019-05-17T22:10:10.621Z,10.10
2019-05-17T22:12:40.630Z,10.10
2019-05-17T22:15:09.578Z,10.10
2019-05-17T22:17:38.585Z,10.10
2019-05-17T22:20:07.616Z,10.10
2019-05-17T22:22:36.556Z,10.10
2019-05-17T22:25:06.231Z,10.10
2019-05-17T22:27:35.451Z,10.10
2019-05-17T22:30:07.139Z,10.20
2019-05-17T22:32:36.712Z,10.20
2019-05-17T22:35:07.154Z,10.10
2019-05-17T22:37:36.103Z,10.10
2019-05-17T22:40:06.967Z,10.10
2019-05-17T22:42:39.183Z,10.10
2019-05-17T22:45:07.047Z,10.10
2019-05-17T22:47:36.171Z,10.10
2019-05-17T22:50:06.521Z,10.10
2019-05-17T22:52:35.865Z,10.00
2019-05-17T22:55:06.640Z,10.10
2019-05-17T22:57:35.581Z,10.10
2019-05-17T23:00:06.948Z,10.10
2019-05-17T23:02:35.851Z,10.10
2019-05-17T23:05:05.933Z,10.00
2019-05-17T23:07:34.798Z,10.00
2019-05-17T23:10:05.810Z,10.00
2019-05-17T23:12:34.681Z,10.00
2019-05-17T23:15:04.879Z,10.00
2019-05-17T23:17:33.770Z,10.00
2019-05-17T23:20:02.687Z,10.00
2019-05-17T23:22:31.538Z,10.00
2019-05-17T23:25:00.408Z,10.00
2019-05-17T23:27:29.282Z,10.00
2019-05-17T23:29:58.124Z,10.00
2019-05-17T23:32:27.058Z,9.90
2019-05-17T23:34:55.931Z,9.90
2019-05-17T23:37:24.787Z,9.90
2019-05-17T23:39:53.687Z,9.90
2019-05-17T23:42:22.555Z,9.90
2019-05-17T23:44:51.412Z,9.90
2019-05-17T23:47:20.308Z,9.90
2019-05-17T23:49:49.174Z,9.90
2019-05-17T23:52:17.999Z,9.90
2019-05-17T23:54:46.904Z,9.90
2019-05-17T23:57:17.073Z,9.90
2019-05-17T23:59:46.051Z,9.80
